Time;durP1;ratioP1;P1;durP2;ratioP2;P2;SDS_P1;SDS_P2;PMS_P1;PMS_P2;Temp;Humidity;BMP_temperature;BMP_pressure;BME280_temperature;BME280_humidity;BME280_pressure;Samples;Min_cycle;Max_cycle;Signal;HPM_P1;HPM_P2
2021/10/04 00:01:08;;;;;;;78.30;42.65;;;;;;;3.64;73.57;102181.75;1795888;80;21512;-75
2021/10/04 00:03:34;;;;;;;62.15;40.35;;;;;;;3.62;73.43;102175.70;1795718;80;20980;-75
2021/10/04 00:06:03;;;;;;;67.87;39.80;;;;;;;3.61;73.35;102179.19;1795589;78;20970;-74
2021/10/04 00:08:30;;;;;;;80.83;43.17;;;;;;;3.60;73.39;102178.78;1795705;80;20959;-76
2021/10/04 00:10:57;;;;;;;71.77;38.08;;;;;;;3.58;73.38;102180.92;1795615;78;21417;-75
2021/10/04 00:13:26;;;;;;;72.55;40.03;;;;;;;3.56;73.42;102178.77;1795636;79;20837;-75
2021/10/04 00:15:53;;;;;;;63.15;38.23;;;;;;;3.52;73.34;102180.09;1795740;79;20872;-76
2021/10/04 00:18:20;;;;;;;63.50;32.60;;;;;;;3.48;73.37;102177.09;1795690;80;20884;-77
2021/10/04 00:20:48;;;;;;;55.45;31.80;;;;;;;3.46;73.67;102175.38;1795656;78;20939;-77
2021/10/04 00:23:16;;;;;;;55.78;32.95;;;;;;;3.43;73.96;102174.11;1795780;78;20903;-77
2021/10/04 00:25:43;;;;;;;61.05;32.70;;;;;;;3.41;74.18;102179.30;1795827;80;21094;-76
2021/10/04 00:28:10;;;;;;;55.67;32.33;;;;;;;3.39;74.30;102168.51;1795624;78;21512;-77
2021/10/04 00:30:37;;;;;;;48.23;31.65;;;;;;;3.40;74.39;102186.66;1796088;80;20887;-78
2021/10/04 00:33:05;;;;;;;60.88;30.77;;;;;;;3.41;74.48;102173.26;1795791;78;20920;-78
2021/10/04 00:35:32;;;;;;;50.15;31.52;;;;;;;3.43;74.46;102176.27;1795661;78;20911;-78
2021/10/04 00:37:59;;;;;;;54.23;29.70;;;;;;;3.45;74.40;102177.56;1795721;80;21523;-77
2021/10/04 00:40:29;;;;;;;54.23;32.48;;;;;;;3.47;74.34;102171.49;1795926;78;20874;-77
2021/10/04 00:42:57;;;;;;;52.75;31.65;;;;;;;3.44;74.15;102175.38;1795612;80;20876;-77
2021/10/04 00:45:25;;;;;;;56.58;30.95;;;;;;;3.41;74.10;102181.89;1795991;80;20931;-77
2021/10/04 00:47:52;;;;;;;49.27;30.05;;;;;;;3.38;73.83;102187.52;1795634;80;20923;-78
2021/10/04 00:50:19;;;;;;;52.73;30.62;;;;;;;3.30;73.73;102181.08;1795689;80;21211;-75
2021/10/04 00:52:46;;;;;;;60.12;31.30;;;;;;;3.23;73.90;102171.62;1795534;78;21374;-76
2021/10/04 00:55:13;;;;;;;57.53;31.42;;;;;;;3.21;74.24;102178.53;1795701;78;20920;-76
2021/10/04 00:57:41;;;;;;;53.65;31.27;;;;;;;3.22;74.38;102176.36;1795824;80;20865;-75
2021/10/04 01:00:15;;;;;;;53.05;31.77;;;;;;;3.25;74.49;102173.77;1795606;80;20848;-76
2021/10/04 01:02:43;;;;;;;51.92;31.05;;;;;;;3.25;74.47;102177.22;1795593;80;21167;-76
2021/10/04 01:05:11;;;;;;;52.55;30.95;;;;;;;3.26;74.22;102173.74;1795690;80;20978;-75
2021/10/04 01:07:39;;;;;;;54.70;31.60;;;;;;;3.24;74.02;102172.88;1795586;80;20935;-76
2021/10/04 01:10:09;;;;;;;58.28;31.17;;;;;;;3.20;73.80;102174.20;1795738;80;21462;-75
2021/10/04 01:12:38;;;;;;;50.28;29.72;;;;;;;3.16;73.79;102179.85;1795740;78;20931;-76
2021/10/04 01:15:05;;;;;;;56.45;28.92;;;;;;;3.10;73.77;102173.39;1795683;80;21382;-76
2021/10/04 01:17:32;;;;;;;50.75;29.27;;;;;;;3.04;73.82;102172.97;1795731;80;21029;-75
2021/10/04 01:20:12;;;;;;;57.93;30.57;;;;;;;3.02;73.80;102171.25;1795704;78;21342;-75
2021/10/04 01:22:38;;;;;;;48.90;29.02;;;;;;;3.00;73.78;102180.76;1795878;78;21439;-76
2021/10/04 01:25:06;;;;;;;43.48;27.45;;;;;;;2.98;73.88;102178.59;1795839;79;20848;-75
2021/10/04 01:27:33;;;;;;;46.83;29.10;;;;;;;2.97;73.95;102174.30;1795695;80;21954;-75
2021/10/04 01:30:00;;;;;;;43.52;28.67;;;;;;;2.96;73.91;102177.74;1795498;80;20971;-75
2021/10/04 01:32:27;;;;;;;48.28;28.87;;;;;;;2.94;73.95;102177.77;1795972;80;20975;-75
2021/10/04 01:34:55;;;;;;;48.25;28.38;;;;;;;2.93;74.02;102181.20;1795595;78;20924;-75
2021/10/04 01:37:23;;;;;;;55.35;31.68;;;;;;;2.92;74.00;102178.20;1796023;78;21468;-75
2021/10/04 01:39:50;;;;;;;44.40;28.25;;;;;;;2.88;74.01;102187.70;1795730;80;21147;-74
2021/10/04 01:42:18;;;;;;;41.00;26.77;;;;;;;2.85;74.02;102185.13;1795872;80;20963;-75
2021/10/04 01:44:45;;;;;;;45.95;29.70;;;;;;;2.81;74.12;102182.56;1795850;78;20927;-75
2021/10/04 01:47:11;;;;;;;42.83;26.37;;;;;;;2.77;74.35;102185.58;1796135;78;20932;-76
2021/10/04 01:49:38;;;;;;;45.25;25.15;;;;;;;2.76;74.60;102182.57;1795884;78;20939;-76
2021/10/04 01:52:07;;;;;;;49.65;27.52;;;;;;;2.78;74.78;102183.84;1795573;80;21994;-75
2021/10/04 01:54:34;;;;;;;40.55;27.20;;;;;;;2.80;74.83;102179.11;1795768;78;20920;-75
2021/10/04 01:57:00;;;;;;;51.68;29.87;;;;;;;2.83;74.76;102184.27;1795647;80;20884;-75
2021/10/04 01:59:27;;;;;;;64.50;26.65;;;;;;;2.85;74.62;102187.72;1795797;80;20884;-74
2021/10/04 02:01:54;;;;;;;41.92;26.50;;;;;;;2.87;74.42;102189.87;1795852;80;20931;-74
2021/10/04 02:04:21;;;;;;;45.80;27.32;;;;;;;2.87;74.34;102192.91;1795870;80;21535;-74
2021/10/04 02:06:50;;;;;;;44.90;26.02;;;;;;;2.84;74.31;102189.87;1795599;78;20880;-75
2021/10/04 02:09:20;;;;;;;43.78;24.57;;;;;;;2.83;74.34;102191.19;1795772;80;20896;-75
2021/10/04 02:11:46;;;;;;;38.08;24.40;;;;;;;2.76;74.53;102182.57;1795847;78;21361;-74
2021/10/04 02:14:15;;;;;;;43.17;24.50;;;;;;;2.74;74.68;102189.92;1795758;78;20939;-74
2021/10/04 02:16:42;;;;;;;36.98;22.45;;;;;;;2.73;74.78;102193.36;1795669;78;21998;-76
2021/10/04 02:19:11;;;;;;;40.10;22.95;;;;;;;2.73;74.92;102194.66;1795647;78;20880;-75
2021/10/04 02:21:38;;;;;;;37.58;23.42;;;;;;;2.75;75.03;102196.37;1795926;78;20931;-75
2021/10/04 02:24:05;;;;;;;42.53;21.82;;;;;;;2.77;75.05;102195.94;1796041;78;20935;-75
2021/10/04 02:26:33;;;;;;;39.40;22.48;;;;;;;2.79;75.02;102199.39;1795722;79;21432;-74
2021/10/04 02:29:00;;;;;;;41.18;22.40;;;;;;;2.80;74.93;102202.83;1795829;78;21506;-75
2021/10/04 02:31:27;;;;;;;42.53;23.38;;;;;;;2.80;74.81;102205.42;1795813;78;20884;-75
2021/10/04 02:33:53;;;;;;;35.63;22.17;;;;;;;2.79;74.68;102201.12;1796097;80;20880;-74
2021/10/04 02:36:24;;;;;;;40.15;21.02;;;;;;;2.76;74.61;102197.23;1795895;78;20884;-75
2021/10/04 02:38:49;;;;;;;33.13;20.68;;;;;;;2.74;74.69;102201.58;1796090;78;20912;-75
2021/10/04 02:41:16;;;;;;;33.18;19.05;;;;;;;2.72;74.94;102204.59;1795897;79;21159;-75
2021/10/04 02:43:42;;;;;;;36.15;21.45;;;;;;;2.69;75.08;102203.73;1795583;80;20908;-75
2021/10/04 02:46:09;;;;;;;31.05;19.25;;;;;;;2.72;75.15;102205.89;1795938;78;20967;-74
2021/10/04 02:48:36;;;;;;;34.40;21.37;;;;;;;2.74;75.11;102221.00;1795639;78;20888;-75
2021/10/04 02:51:03;;;;;;;35.25;21.62;;;;;;;2.75;75.04;102216.23;1795639;78;20936;-75
2021/10/04 02:53:30;;;;;;;29.10;18.92;;;;;;;2.76;74.89;102223.13;1795702;78;21531;-74
2021/10/04 02:55:57;;;;;;;28.32;18.48;;;;;;;2.76;74.78;102223.13;1795909;80;20936;-74
2021/10/04 02:58:24;;;;;;;33.67;20.27;;;;;;;2.74;74.61;102228.34;1795675;78;20959;-74
2021/10/04 03:00:50;;;;;;;29.95;17.42;;;;;;;2.70;74.50;102226.17;1795977;78;21677;-74
2021/10/04 03:03:17;;;;;;;31.75;17.75;;;;;;;2.66;74.39;102224.88;1795804;78;20880;-75
2021/10/04 03:05:44;;;;;;;33.02;19.82;;;;;;;2.60;74.48;102227.06;1796102;78;21512;-76
2021/10/04 03:08:10;;;;;;;35.05;18.82;;;;;;;2.57;74.61;102228.78;1795723;80;20864;-75
2021/10/04 03:10:37;;;;;;;27.00;18.73;;;;;;;2.54;74.74;102230.95;1796061;78;21390;-76
2021/10/04 03:13:04;;;;;;;33.53;20.08;;;;;;;2.54;74.82;102228.36;1795658;78;20997;-75
2021/10/04 03:15:31;;;;;;;37.35;19.40;;;;;;;2.56;74.76;102227.92;1796008;80;20951;-77
2021/10/04 03:17:58;;;;;;;37.58;21.07;;;;;;;2.57;74.67;102227.05;1795837;80;21187;-76
2021/10/04 03:20:25;;;;;;;37.78;22.60;;;;;;;2.58;74.54;102231.78;1795584;80;21013;-76
2021/10/04 03:22:54;;;;;;;31.23;20.62;;;;;;;2.58;74.33;102238.27;1795635;78;20923;-76
2021/10/04 03:25:22;;;;;;;37.10;20.15;;;;;;;2.58;74.15;102239.55;1795961;78;20908;-75
2021/10/04 03:27:49;;;;;;;33.13;21.57;;;;;;;2.54;74.05;102232.69;1795846;80;20927;-77
2021/10/04 03:30:16;;;;;;;31.62;20.55;;;;;;;2.45;73.93;102239.58;1795995;80;21062;-76
2021/10/04 03:32:43;;;;;;;34.67;19.40;;;;;;;2.39;74.28;102242.16;1795779;78;20975;-75
2021/10/04 03:35:10;;;;;;;34.05;20.15;;;;;;;2.36;74.56;102237.00;1795954;78;21357;-76
2021/10/04 03:37:37;;;;;;;35.80;20.35;;;;;;;2.38;74.67;102243.04;1795772;80;20876;-75
2021/10/04 03:40:05;;;;;;;32.93;20.45;;;;;;;2.40;74.81;102240.02;1796094;78;20971;-76
2021/10/04 03:42:32;;;;;;;31.82;19.40;;;;;;;2.41;74.83;102241.73;1796068;78;21147;-75
2021/10/04 03:44:59;;;;;;;38.00;20.20;;;;;;;2.43;74.80;102245.19;1795554;78;20908;-76
2021/10/04 03:47:26;;;;;;;37.10;21.62;;;;;;;2.44;74.66;102246.90;1795779;78;20868;-75
2021/10/04 03:49:53;;;;;;;37.13;22.62;;;;;;;2.46;74.61;102240.44;1795993;78;20904;-75
2021/10/04 03:52:20;;;;;;;38.33;20.80;;;;;;;2.45;74.50;102242.61;1787224;78;21409;-77
2021/10/04 03:54:46;;;;;;;34.92;20.05;;;;;;;2.44;74.38;102247.34;1765036;81;21558;-75
2021/10/04 03:57:13;;;;;;;34.67;20.82;;;;;;;2.42;74.34;102248.66;1765462;81;20909;-76
2021/10/04 03:59:40;;;;;;;38.50;22.00;;;;;;;2.40;74.32;102243.02;1765178;81;21232;-76
2021/10/04 04:02:07;;;;;;;35.28;20.55;;;;;;;2.38;74.36;102240.86;1765058;81;20944;-76
2021/10/04 04:04:34;;;;;;;33.78;20.90;;;;;;;2.36;74.50;102242.17;1765115;80;20939;-76
2021/10/04 04:07:01;;;;;;;34.08;20.68;;;;;;;2.37;74.55;102240.00;1765173;81;21948;-76
2021/10/04 04:09:28;;;;;;;39.55;21.20;;;;;;;2.39;74.66;102242.16;1765031;81;20888;-76
2021/10/04 04:11:55;;;;;;;45.80;23.75;;;;;;;2.41;74.80;102232.67;1765054;81;20873;-77
2021/10/04 04:14:22;;;;;;;44.30;22.75;;;;;;;2.46;74.75;102237.84;1765110;80;20942;-76
2021/10/04 04:16:49;;;;;;;45.65;23.12;;;;;;;2.48;74.57;102237.41;1765202;81;20880;-75
2021/10/04 04:19:16;;;;;;;47.78;22.27;;;;;;;2.47;74.52;102233.97;1765236;80;21126;-73
2021/10/04 04:21:43;;;;;;;43.73;23.42;;;;;;;2.48;74.42;102236.13;1764872;80;20936;-74
2021/10/04 04:24:10;;;;;;;44.88;22.15;;;;;;;2.47;74.32;102235.27;1765212;81;20976;-73
2021/10/04 04:26:38;;;;;;;44.03;24.07;;;;;;;2.47;74.31;102237.00;1765275;81;20936;-75
2021/10/04 04:29:05;;;;;;;45.92;23.57;;;;;;;2.48;74.47;102234.83;1765067;81;20893;-74
2021/10/04 04:31:32;;;;;;;42.50;21.27;;;;;;;2.49;74.67;102230.95;1765262;81;21487;-73
2021/10/04 04:33:59;;;;;;;33.70;19.85;;;;;;;2.55;74.80;102235.69;1764972;81;20931;-76
2021/10/04 04:36:26;;;;;;;44.15;23.02;;;;;;;2.60;74.90;102230.95;1765392;81;21414;-74
2021/10/04 04:38:53;;;;;;;42.60;23.90;;;;;;;2.67;74.98;102234.39;1764935;81;21033;-75
2021/10/04 04:41:20;;;;;;;43.50;24.77;;;;;;;2.74;75.10;102228.34;1765095;80;20908;-76
2021/10/04 04:43:47;;;;;;;53.90;26.52;;;;;;;2.95;75.43;102222.23;1764905;80;21147;-75
2021/10/04 04:46:14;;;;;;;73.47;29.27;;;;;;;3.32;75.30;102228.17;1765170;80;21489;-75
2021/10/04 04:48:41;;;;;;;61.92;27.82;;;;;;;3.73;74.64;102225.83;1765001;81;21015;-73
2021/10/04 04:51:08;;;;;;;66.67;27.15;;;;;;;4.03;73.76;102232.98;1765154;81;21517;-74
2021/10/04 04:53:34;;;;;;;58.60;27.45;;;;;;;4.17;72.96;102225.09;1785209;78;20967;-75
2021/10/04 04:56:02;;;;;;;41.35;23.70;;;;;;;4.21;72.57;102228.09;1795661;80;21138;-74
2021/10/04 04:58:29;;;;;;;62.70;26.27;;;;;;;4.21;72.42;102225.50;1795613;78;21430;-73
2021/10/04 05:00:56;;;;;;;61.28;24.60;;;;;;;4.25;72.45;102227.64;1795648;78;21022;-73
2021/10/04 05:03:23;;;;;;;46.80;25.37;;;;;;;4.31;72.48;102227.16;1795737;80;21003;-74
2021/10/04 05:05:50;;;;;;;43.70;22.45;;;;;;;4.38;72.33;102231.88;1795756;80;20908;-78
2021/10/04 05:08:17;;;;;;;38.40;20.60;;;;;;;4.44;72.29;102230.50;1795958;78;21145;-76
2021/10/04 05:10:43;;;;;;;51.88;21.37;;;;;;;4.55;72.52;102227.81;1795487;80;21000;-78
2021/10/04 05:13:10;;;;;;;42.83;19.75;;;;;;;4.70;72.60;102226.37;1795958;80;20884;-76
2021/10/04 05:15:37;;;;;;;44.70;21.97;;;;;;;4.92;72.62;102229.62;1795711;78;21396;-78
2021/10/04 05:18:04;;;;;;;44.80;21.68;;;;;;;5.08;72.19;102234.21;1796196;80;20982;-74
2021/10/04 05:20:31;;;;;;;66.15;26.37;;;;;;;5.20;72.07;102234.50;1795729;78;21150;-74
2021/10/04 05:22:58;;;;;;;68.62;33.53;;;;;;;5.30;71.95;102241.77;1795706;78;20989;-74
2021/10/04 05:25:25;;;;;;;84.92;41.20;;;;;;;5.39;72.02;102237.31;1794632;78;20998;-75
2021/10/04 05:27:52;;;;;;;79.40;38.08;;;;;;;5.50;71.91;102238.48;1795995;80;20995;-74
2021/10/04 05:30:20;;;;;;;64.87;36.25;;;;;;;5.64;71.89;102238.30;1795850;80;20892;-74
2021/10/04 05:32:56;;;;;;;65.65;34.45;;;;;;;5.75;71.63;102240.76;1796027;80;21153;-74
2021/10/04 05:35:23;;;;;;;58.83;30.80;;;;;;;5.91;71.69;102245.30;1782744;80;20892;-73
2021/10/04 05:37:50;;;;;;;53.20;28.57;;;;;;;6.31;72.01;102242.12;1796279;78;20924;-72
2021/10/04 05:40:17;;;;;;;61.63;29.87;;;;;;;6.99;71.96;102243.13;1795812;80;20872;-74
2021/10/04 05:42:44;;;;;;;39.03;21.02;;;;;;;7.93;70.51;102242.02;1795919;78;20995;-74
2021/10/04 05:45:12;;;;;;;52.48;23.18;;;;;;;8.92;67.23;102247.03;1795913;78;21147;-74
2021/10/04 05:47:38;;;;;;;27.93;16.10;;;;;;;9.93;64.75;102249.78;1796028;78;20880;-74
2021/10/04 05:50:06;;;;;;;26.90;12.73;;;;;;;10.88;62.13;102251.92;1795816;79;20963;-74
2021/10/04 05:52:33;;;;;;;16.75;9.05;;;;;;;11.84;59.11;102253.20;1795558;80;21057;-75
2021/10/04 05:55:00;;;;;;;13.70;9.20;;;;;;;12.74;55.06;102249.11;1795826;78;20927;-75
2021/10/04 05:57:27;;;;;;;11.30;8.60;;;;;;;13.51;52.50;102245.75;1795492;80;21163;-76
2021/10/04 05:59:55;;;;;;;19.85;9.63;;;;;;;14.22;50.12;102254.63;1795947;78;21440;-74
2021/10/04 06:02:23;;;;;;;15.28;9.33;;;;;;;14.82;47.11;102263.54;1795741;78;21448;-74
2021/10/04 06:04:49;;;;;;;13.32;9.90;;;;;;;15.40;45.71;102256.97;1796093;78;20997;-74
2021/10/04 06:07:16;;;;;;;14.38;9.80;;;;;;;15.98;44.18;102259.53;1795730;80;20940;-74
2021/10/04 06:09:43;;;;;;;16.07;9.75;;;;;;;16.54;43.40;102266.02;1769081;80;22335;-74
2021/10/04 06:12:09;;;;;;;17.60;8.75;;;;;;;17.07;41.90;102269.53;1795900;78;20900;-74
2021/10/04 06:14:36;;;;;;;13.70;8.73;;;;;;;17.55;41.02;102259.48;1796041;80;20864;-73
2021/10/04 06:17:03;;;;;;;13.60;8.55;;;;;;;17.94;39.53;102266.73;1795710;78;20904;-74
2021/10/04 06:19:30;;;;;;;18.75;9.50;;;;;;;18.37;38.93;102270.53;1795999;78;20924;-74
2021/10/04 06:21:59;;;;;;;14.95;7.90;;;;;;;18.77;38.31;102272.31;1795735;79;21168;-73
2021/10/04 06:24:25;;;;;;;16.35;8.43;;;;;;;19.13;37.69;102272.08;1796005;78;20911;-73
2021/10/04 06:26:52;;;;;;;12.40;8.53;;;;;;;19.51;36.60;102266.70;1795710;78;21417;-74
2021/10/04 06:29:19;;;;;;;13.68;6.92;;;;;;;19.73;35.60;102270.52;1795946;80;20935;-74
2021/10/04 06:31:46;;;;;;;16.97;7.85;;;;;;;19.93;35.16;102269.06;1795775;78;20923;-73
2021/10/04 06:34:12;;;;;;;13.85;7.50;;;;;;;20.17;34.68;102265.92;1796292;78;21131;-73
2021/10/04 06:36:39;;;;;;;14.95;8.30;;;;;;;20.48;34.15;102266.28;1795821;80;20970;-72
2021/10/04 06:39:06;;;;;;;10.13;7.42;;;;;;;20.72;33.79;102262.27;1795859;78;20935;-74
2021/10/04 06:41:33;;;;;;;14.60;7.03;;;;;;;21.02;33.61;102272.34;1795827;80;20967;-75
2021/10/04 06:44:01;;;;;;;15.32;7.40;;;;;;;21.15;33.31;102274.07;1795744;78;20919;-76
2021/10/04 06:46:27;;;;;;;23.75;7.80;;;;;;;21.18;32.85;102265.32;1795845;80;21145;-74
2021/10/04 06:48:54;;;;;;;11.50;7.42;;;;;;;21.30;32.77;102273.70;1795302;78;20903;-75
2021/10/04 06:51:21;;;;;;;15.72;7.80;;;;;;;21.52;31.84;102259.98;1795773;78;20880;-75
2021/10/04 06:53:48;;;;;;;11.78;7.67;;;;;;;21.72;31.73;102264.59;1779650;80;20841;-75
2021/10/04 06:56:14;;;;;;;12.65;7.17;;;;;;;21.95;31.50;102265.86;1765223;81;20917;-75
2021/10/04 06:58:41;;;;;;;12.73;7.97;;;;;;;22.18;30.93;102266.62;1765026;81;21534;-74
2021/10/04 07:01:11;;;;;;;9.90;7.08;;;;;;;22.36;29.66;102261.59;1765008;81;20995;-72
2021/10/04 07:03:39;;;;;;;12.82;7.55;;;;;;;22.51;29.04;102270.98;1765153;81;20877;-73
2021/10/04 07:06:07;;;;;;;16.05;7.12;;;;;;;22.63;29.09;102267.75;1765195;80;21386;-77
2021/10/04 07:08:34;;;;;;;15.50;7.30;;;;;;;22.76;28.79;102261.72;1765057;81;20912;-77
2021/10/04 07:11:01;;;;;;;14.00;7.50;;;;;;;22.79;28.66;102270.45;1765314;81;22227;-78
2021/10/04 07:13:28;;;;;;;9.50;6.60;;;;;;;23.01;28.72;102273.50;1765079;81;20928;-80
2021/10/04 07:15:56;;;;;;;13.78;6.70;;;;;;;23.25;28.24;102269.18;1765234;81;21450;-79
2021/10/04 07:18:23;;;;;;;14.10;6.78;;;;;;;23.49;27.78;102264.83;1765133;81;20987;-80
2021/10/04 07:20:50;;;;;;;15.80;7.30;;;;;;;23.69;27.48;102271.08;1765278;81;20861;-79
2021/10/04 07:23:17;;;;;;;12.15;6.87;;;;;;;23.86;26.86;102266.42;1765299;80;21157;-79
2021/10/04 07:25:43;;;;;;;12.53;6.72;;;;;;;24.00;25.95;102261.14;1765401;81;20932;-80
2021/10/04 07:28:10;;;;;;;15.43;7.28;;;;;;;24.04;26.16;102270.60;1765205;81;20901;-79
2021/10/04 07:30:37;;;;;;;10.38;6.42;;;;;;;24.13;26.12;102264.90;1765159;80;20940;-77
2021/10/04 07:33:05;;;;;;;15.80;7.47;;;;;;;24.32;25.79;102264.91;1765512;80;20971;-74
2021/10/04 07:35:32;;;;;;;14.18;7.03;;;;;;;24.41;25.55;102268.53;1765224;80;21071;-77
2021/10/04 07:37:59;;;;;;;12.13;7.85;;;;;;;24.54;25.73;102268.28;1765243;81;21361;-79
2021/10/04 07:40:26;;;;;;;15.70;7.47;;;;;;;24.68;25.85;102270.52;1765484;81;20924;-78
2021/10/04 07:42:54;;;;;;;14.38;6.97;;;;;;;24.80;25.41;102273.87;1765135;81;20940;-76
2021/10/04 07:45:20;;;;;;;11.95;7.37;;;;;;;24.94;25.41;102269.38;1765357;81;20888;-76
2021/10/04 07:47:49;;;;;;;9.20;6.22;;;;;;;25.06;25.55;102271.88;1765644;81;21104;-77
2021/10/04 07:50:16;;;;;;;11.95;6.75;;;;;;;25.20;24.42;102270.10;1764470;80;21477;-76
2021/10/04 07:52:45;;;;;;;17.10;6.15;;;;;;;25.23;24.25;102273.83;1765380;81;20983;-77
2021/10/04 07:55:12;;;;;;;11.40;7.53;;;;;;;25.20;23.47;102270.10;1766344;80;20931;-76
2021/10/04 07:57:40;;;;;;;12.60;6.58;;;;;;;25.17;23.45;102273.06;1795774;78;20880;-76
2021/10/04 08:00:08;;;;;;;11.57;5.87;;;;;;;25.06;23.45;102275.43;1795758;78;22133;-77
2021/10/04 08:02:41;;;;;;;9.98;5.85;;;;;;;24.89;23.68;102266.80;1795629;78;21497;-77
2021/10/04 08:05:09;;;;;;;8.93;5.58;;;;;;;24.84;24.03;102267.23;1795796;80;20923;-77
2021/10/04 08:07:36;;;;;;;10.48;5.90;;;;;;;24.92;24.36;102269.17;1795760;80;20912;-78
2021/10/04 08:10:04;;;;;;;14.20;5.60;;;;;;;25.15;24.48;102267.83;1795806;80;21469;-77
2021/10/04 08:12:31;;;;;;;8.48;5.10;;;;;;;25.32;23.72;102266.22;1795646;78;21992;-77
2021/10/04 08:15:00;;;;;;;12.58;5.78;;;;;;;25.48;23.25;102268.28;1795610;78;20939;-76
2021/10/04 08:17:27;;;;;;;10.75;5.40;;;;;;;25.56;23.26;102264.33;1796090;79;20852;-73
2021/10/04 08:19:54;;;;;;;10.78;5.75;;;;;;;25.57;23.30;102257.97;1795711;80;21404;-73
2021/10/04 08:22:21;;;;;;;11.53;5.17;;;;;;;25.62;23.47;102262.89;1795659;78;20880;-74
2021/10/04 08:24:48;;;;;;;8.40;5.53;;;;;;;25.81;23.74;102257.87;1795689;78;22049;-74
2021/10/04 08:27:15;;;;;;;8.73;5.05;;;;;;;25.94;23.54;102257.53;1795831;80;20880;-74
2021/10/04 08:29:42;;;;;;;15.35;5.33;;;;;;;26.09;23.77;102255.16;1795694;78;20986;-74
2021/10/04 08:32:09;;;;;;;11.33;6.58;;;;;;;26.32;23.66;102262.23;1795910;80;20939;-76
2021/10/04 08:34:37;;;;;;;7.50;6.70;;;;;;;26.41;22.15;102256.78;1795663;80;20829;-74
2021/10/04 08:37:04;;;;;;;12.05;7.87;;;;;;;26.46;21.57;102256.31;1796216;78;21461;-74
2021/10/04 08:39:31;;;;;;;13.20;7.33;;;;;;;26.38;21.94;102254.89;1795542;78;20916;-74
2021/10/04 08:41:58;;;;;;;15.05;7.22;;;;;;;26.41;21.79;102251.41;1795851;80;20904;-74
2021/10/04 08:44:25;;;;;;;6.92;6.30;;;;;;;26.43;22.30;102255.27;1795733;80;21416;-74
2021/10/04 08:46:52;;;;;;;9.18;5.85;;;;;;;26.44;22.14;102243.01;1769533;80;21022;-73
2021/10/04 08:49:19;;;;;;;11.48;5.92;;;;;;;26.50;21.50;102247.41;1795716;80;21855;-74
2021/10/04 08:51:48;;;;;;;11.45;6.45;;;;;;;26.45;21.44;102235.27;1796018;78;20915;-75
2021/10/04 08:54:14;;;;;;;11.22;5.05;;;;;;;26.49;21.76;102234.46;1795668;78;20928;-74
2021/10/04 08:56:41;;;;;;;7.87;4.72;;;;;;;26.73;21.98;102233.81;1766557;80;21383;-73
2021/10/04 08:59:08;;;;;;;5.50;3.77;;;;;;;26.96;21.89;102235.44;1792518;80;20916;-73
2021/10/04 09:01:36;;;;;;;7.30;3.52;;;;;;;27.05;20.96;102229.59;1764052;80;21056;-74
2021/10/04 09:04:03;;;;;;;5.70;3.87;;;;;;;27.06;20.95;102221.36;1792753;78;20967;-74
2021/10/04 09:09:08;;;;;;;4.72;3.17;;;;;;;27.37;20.48;102222.66;1798485;79;22608;-74
2021/10/04 09:11:44;;;;;;;5.42;2.87;;;;;;;27.32;19.39;102218.28;1758297;80;20917;-74
2021/10/04 09:14:19;;;;;;;5.92;3.05;;;;;;;27.28;19.97;102216.44;1758403;81;21828;-74
2021/10/04 09:16:53;;;;;;;12.82;2.80;;;;;;;27.38;19.41;102206.34;1758095;81;20936;-75
2021/10/04 09:19:27;;;;;;;13.93;2.40;;;;;;;27.44;18.64;102219.68;1723383;83;20931;-73
2021/10/04 09:22:18;;;;;;;3.30;2.08;;;;;;;27.34;18.36;102215.76;1724720;83;20935;-74
2021/10/04 09:25:02;;;;;;;5.10;2.20;;;;;;;27.24;18.77;102220.45;1724670;83;20931;-73
2021/10/04 09:27:39;;;;;;;10.48;3.05;;;;;;;27.17;18.93;102210.81;1724892;81;21579;-72
2021/10/04 09:30:16;;;;;;;10.60;2.10;;;;;;;27.08;18.68;102216.66;1724756;83;20852;-73
2021/10/04 09:32:48;;;;;;;5.95;2.25;;;;;;;26.88;18.31;102203.95;1724719;81;21014;-73
2021/10/04 09:35:20;;;;;;;8.10;3.12;;;;;;;26.74;19.15;102207.22;1724825;83;21432;-73
2021/10/04 09:37:54;;;;;;;4.83;2.57;;;;;;;26.70;18.50;102205.84;1724737;81;21401;-74
2021/10/04 09:40:41;;;;;;;6.87;4.17;;;;;;;26.59;18.49;102201.61;1724849;83;21784;-76
2021/10/04 09:43:27;;;;;;;10.00;4.45;;;;;;;26.42;18.81;102212.72;1724750;83;20880;-75
2021/10/04 09:46:06;;;;;;;9.15;3.25;;;;;;;26.22;19.21;102204.00;1723674;81;20888;-78
2021/10/04 09:48:34;;;;;;;3.58;2.98;;;;;;;26.36;19.07;102195.86;1724642;83;21476;-75
2021/10/04 09:51:17;;;;;;;5.60;3.85;;;;;;;26.56;19.58;102193.00;1724859;83;21429;-73
2021/10/04 09:54:08;;;;;;;9.97;3.23;;;;;;;26.69;18.78;102190.72;1724412;83;21511;-75
2021/10/04 09:56:36;;;;;;;5.42;2.47;;;;;;;26.41;19.08;102188.66;1724628;83;21485;-75
2021/10/04 09:59:03;;;;;;;5.37;2.65;;;;;;;26.11;19.82;102185.43;1724848;83;21782;-75
2021/10/04 10:01:30;;;;;;;3.50;2.52;;;;;;;25.92;19.89;102195.84;1724772;83;21416;-75
2021/10/04 10:03:57;;;;;;;6.65;2.95;;;;;;;25.56;19.67;102174.83;1724802;83;21450;-75
2021/10/04 10:06:24;;;;;;;8.85;2.95;;;;;;;25.01;19.93;102179.70;1724983;83;21123;-76
2021/10/04 10:08:51;;;;;;;7.08;3.30;;;;;;;24.47;20.99;102179.46;1718261;82;21374;-76
2021/10/04 10:11:18;;;;;;;5.15;2.27;;;;;;;24.15;21.59;102180.66;1717121;82;20888;-76
2021/10/04 10:13:45;;;;;;;7.65;2.62;;;;;;;24.00;21.68;102179.41;1716983;83;20932;-76
2021/10/04 10:16:23;;;;;;;2.67;2.20;;;;;;;23.85;21.70;102176.30;1716931;83;20860;-76
2021/10/04 10:19:02;;;;;;;4.50;2.50;;;;;;;23.52;21.48;102170.34;1716809;83;21298;-75
2021/10/04 10:21:32;;;;;;;7.08;2.42;;;;;;;23.06;21.93;102170.45;1716309;83;20884;-76
2021/10/04 10:24:11;;;;;;;8.15;2.62;;;;;;;22.59;22.54;102171.41;1716494;83;20856;-76
2021/10/04 10:26:49;;;;;;;8.40;2.60;;;;;;;22.38;23.65;102171.92;1715669;83;20892;-76
2021/10/04 10:29:23;;;;;;;5.67;3.17;;;;;;;22.28;23.31;102163.35;1711646;83;20904;-77
2021/10/04 10:31:59;;;;;;;8.50;2.70;;;;;;;22.24;23.79;102152.56;1716426;83;21376;-75
2021/10/04 10:34:36;;;;;;;7.22;4.30;;;;;;;22.25;24.25;102159.59;1716158;82;21229;-76
2021/10/04 10:37:21;;;;;;;5.65;3.58;;;;;;;22.40;23.39;102166.80;1716375;83;21014;-75
2021/10/04 10:39:57;;;;;;;3.85;3.02;;;;;;;22.42;22.69;102162.66;1716798;82;21407;-74
2021/10/04 10:42:35;;;;;;;9.65;3.80;;;;;;;22.41;22.45;102164.95;1716407;83;20995;-75
2021/10/04 10:45:09;;;;;;;11.40;5.05;;;;;;;22.26;22.62;102151.94;1687997;83;21503;-74
2021/10/04 10:47:43;;;;;;;6.92;5.03;;;;;;;21.96;22.83;102152.67;1716023;83;20932;-74
2021/10/04 10:50:32;;;;;;;7.97;3.25;;;;;;;21.58;23.75;102152.71;1716814;83;20864;-74
2021/10/04 10:53:13;;;;;;;;;;;;;;;21.18;23.90;102155.09;1752814;81;20916;-75
2021/10/04 10:55:41;;;;;;;7.62;3.27;;;;;;;;;;1752280;80;20370;-74
2021/10/04 10:58:12;;;;;;;7.80;2.80;;;;;;;20.15;25.01;102145.80;1752806;80;21801;-76
2021/10/04 11:01:16;;;;;;;5.22;3.77;;;;;;;19.72;25.74;102157.88;1752839;82;20916;-76
2021/10/04 11:03:51;;;;;;;3.13;2.73;;;;;;;19.38;26.33;102154.13;1752720;82;20967;-77
2021/10/04 11:06:18;;;;;;;5.17;3.25;;;;;;;19.04;26.71;102121.52;1752499;82;20893;-78
2021/10/04 11:08:55;;;;;;;5.47;2.83;;;;;;;18.96;26.91;102133.17;1746695;82;21019;-78
2021/10/04 11:11:24;;;;;;;5.50;3.60;;;;;;;18.78;27.17;102134.00;1744712;81;21175;-80
2021/10/04 11:14:13;;;;;;;9.78;3.17;;;;;;;18.63;27.34;102141.69;1744454;82;20885;-79
2021/10/04 11:16:58;;;;;;;5.67;3.80;;;;;;;18.46;27.29;102144.69;1744452;81;21430;-78
2021/10/04 11:19:31;;;;;;;10.48;5.70;;;;;;;18.22;27.59;102139.61;1689304;84;26541;-82
2021/10/04 11:21:58;;;;;;;8.93;4.43;;;;;;;18.03;28.04;102147.14;1709040;84;20896;-80
2021/10/04 11:24:26;;;;;;;9.50;3.35;;;;;;;17.79;28.61;102151.76;1708742;84;21803;-80
2021/10/04 11:26:53;;;;;;;4.10;2.70;;;;;;;17.64;28.58;102147.94;1708725;84;21023;-82
2021/10/04 11:29:21;;;;;;;12.33;2.90;;;;;;;17.47;28.72;102145.89;1708841;84;20965;-80